sensor_id;sensor_type;location;lat;lon;timestamp;P1;durP1;ratioP1;P2;durP2;ratioP2
57627;SDS011;43451;49.060;10.616;2024-01-07T00:01:55;14.70;;;8.30;;
57627;SDS011;43451;49.060;10.616;2024-01-07T00:04:21;12.45;;;8.40;;
57627;SDS011;43451;49.060;10.616;2024-01-07T00:06:46;12.25;;;8.18;;
57627;SDS011;43451;49.060;10.616;2024-01-07T00:09:12;15.02;;;8.98;;
57627;SDS011;43451;49.060;10.616;2024-01-07T00:11:38;14.30;;;8.88;;
57627;SDS011;43451;49.060;10.616;2024-01-07T00:14:04;12.10;;;8.40;;
57627;SDS011;43451;49.060;10.616;2024-01-07T00:16:30;15.88;;;8.32;;
57627;SDS011;43451;49.060;10.616;2024-01-07T00:18:55;12.98;;;8.43;;
57627;SDS011;43451;49.060;10.616;2024-01-07T00:21:21;13.32;;;8.38;;
57627;SDS011;43451;49.060;10.616;2024-01-07T00:23:46;14.32;;;8.07;;
57627;SDS011;43451;49.060;10.616;2024-01-07T00:26:12;15.50;;;8.88;;
57627;SDS011;43451;49.060;10.616;2024-01-07T00:28:37;13.45;;;8.80;;
57627;SDS011;43451;49.060;10.616;2024-01-07T00:31:03;14.93;;;8.95;;
57627;SDS011;43451;49.060;10.616;2024-01-07T00:33:30;15.95;;;8.55;;
57627;SDS011;43451;49.060;10.616;2024-01-07T00:35:57;16.55;;;9.02;;
57627;SDS011;43451;49.060;10.616;2024-01-07T00:38:22;12.48;;;8.43;;
57627;SDS011;43451;49.060;10.616;2024-01-07T00:40:48;14.18;;;8.75;;
57627;SDS011;43451;49.060;10.616;2024-01-07T00:43:13;13.05;;;8.32;;
57627;SDS011;43451;49.060;10.616;2024-01-07T00:45:39;17.15;;;9.80;;
57627;SDS011;43451;49.060;10.616;2024-01-07T00:48:05;18.35;;;9.05;;
57627;SDS011;43451;49.060;10.616;2024-01-07T00:50:31;16.95;;;9.10;;
57627;SDS011;43451;49.060;10.616;2024-01-07T00:52:56;15.02;;;9.35;;
57627;SDS011;43451;49.060;10.616;2024-01-07T00:55:22;15.15;;;9.10;;
57627;SDS011;43451;49.060;10.616;2024-01-07T00:57:49;14.10;;;8.95;;
57627;SDS011;43451;49.060;10.616;2024-01-07T01:00:15;13.75;;;8.68;;
57627;SDS011;43451;49.060;10.616;2024-01-07T01:02:41;12.00;;;7.93;;
57627;SDS011;43451;49.060;10.616;2024-01-07T01:05:06;17.02;;;8.43;;
57627;SDS011;43451;49.060;10.616;2024-01-07T01:07:32;16.63;;;8.85;;
57627;SDS011;43451;49.060;10.616;2024-01-07T01:09:58;14.98;;;9.27;;
57627;SDS011;43451;49.060;10.616;2024-01-07T01:12:23;13.48;;;8.50;;
57627;SDS011;43451;49.060;10.616;2024-01-07T01:14:49;14.32;;;8.10;;
57627;SDS011;43451;49.060;10.616;2024-01-07T01:17:15;12.65;;;8.25;;
57627;SDS011;43451;49.060;10.616;2024-01-07T01:19:41;13.95;;;8.00;;
57627;SDS011;43451;49.060;10.616;2024-01-07T01:22:06;13.00;;;7.93;;
57627;SDS011;43451;49.060;10.616;2024-01-07T01:24:32;12.82;;;7.95;;
57627;SDS011;43451;49.060;10.616;2024-01-07T01:26:57;14.50;;;8.57;;
57627;SDS011;43451;49.060;10.616;2024-01-07T01:29:23;14.48;;;8.68;;
57627;SDS011;43451;49.060;10.616;2024-01-07T01:31:49;13.00;;;8.30;;
57627;SDS011;43451;49.060;10.616;2024-01-07T01:34:15;14.23;;;9.20;;
57627;SDS011;43451;49.060;10.616;2024-01-07T01:36:40;13.88;;;8.38;;
57627;SDS011;43451;49.060;10.616;2024-01-07T01:39:06;14.00;;;8.35;;
57627;SDS011;43451;49.060;10.616;2024-01-07T01:41:32;14.65;;;8.48;;
57627;SDS011;43451;49.060;10.616;2024-01-07T01:43:58;14.23;;;8.15;;
57627;SDS011;43451;49.060;10.616;2024-01-07T01:46:24;14.90;;;8.70;;
57627;SDS011;43451;49.060;10.616;2024-01-07T01:48:50;14.07;;;9.18;;
57627;SDS011;43451;49.060;10.616;2024-01-07T01:51:16;13.23;;;8.60;;
57627;SDS011;43451;49.060;10.616;2024-01-07T01:53:42;15.52;;;9.02;;
57627;SDS011;43451;49.060;10.616;2024-01-07T01:56:09;15.10;;;8.45;;
57627;SDS011;43451;49.060;10.616;2024-01-07T01:58:35;15.18;;;8.27;;
57627;SDS011;43451;49.060;10.616;2024-01-07T02:01:01;15.23;;;8.45;;
57627;SDS011;43451;49.060;10.616;2024-01-07T02:03:28;16.95;;;9.02;;
57627;SDS011;43451;49.060;10.616;2024-01-07T02:05:54;15.65;;;9.25;;
57627;SDS011;43451;49.060;10.616;2024-01-07T02:08:21;14.40;;;8.50;;
57627;SDS011;43451;49.060;10.616;2024-01-07T02:10:46;16.75;;;8.98;;
57627;SDS011;43451;49.060;10.616;2024-01-07T02:13:12;18.27;;;9.75;;
57627;SDS011;43451;49.060;10.616;2024-01-07T02:15:37;16.23;;;9.20;;
57627;SDS011;43451;49.060;10.616;2024-01-07T02:18:03;14.90;;;9.68;;
57627;SDS011;43451;49.060;10.616;2024-01-07T02:20:29;16.73;;;9.30;;
57627;SDS011;43451;49.060;10.616;2024-01-07T02:22:54;14.02;;;9.07;;
57627;SDS011;43451;49.060;10.616;2024-01-07T02:27:47;14.80;;;9.35;;
57627;SDS011;43451;49.060;10.616;2024-01-07T02:30:13;14.40;;;9.05;;
57627;SDS011;43451;49.060;10.616;2024-01-07T02:32:38;16.25;;;9.75;;
57627;SDS011;43451;49.060;10.616;2024-01-07T02:35:04;16.23;;;9.52;;
57627;SDS011;43451;49.060;10.616;2024-01-07T02:37:30;21.10;;;10.00;;
57627;SDS011;43451;49.060;10.616;2024-01-07T02:39:56;14.63;;;9.40;;
57627;SDS011;43451;49.060;10.616;2024-01-07T02:42:21;18.15;;;10.63;;
57627;SDS011;43451;49.060;10.616;2024-01-07T02:44:47;19.60;;;9.88;;
57627;SDS011;43451;49.060;10.616;2024-01-07T02:47:12;18.35;;;9.45;;
57627;SDS011;43451;49.060;10.616;2024-01-07T02:49:38;18.30;;;9.95;;
57627;SDS011;43451;49.060;10.616;2024-01-07T02:52:04;17.15;;;10.35;;
57627;SDS011;43451;49.060;10.616;2024-01-07T02:54:29;17.92;;;9.88;;
57627;SDS011;43451;49.060;10.616;2024-01-07T02:56:55;16.27;;;10.10;;
57627;SDS011;43451;49.060;10.616;2024-01-07T02:59:20;17.38;;;10.32;;
57627;SDS011;43451;49.060;10.616;2024-01-07T03:01:46;16.80;;;10.18;;
57627;SDS011;43451;49.060;10.616;2024-01-07T03:04:13;17.58;;;10.60;;
57627;SDS011;43451;49.060;10.616;2024-01-07T03:06:39;17.10;;;10.50;;
57627;SDS011;43451;49.060;10.616;2024-01-07T03:09:04;16.50;;;10.13;;
57627;SDS011;43451;49.060;10.616;2024-01-07T03:11:30;16.08;;;10.20;;
57627;SDS011;43451;49.060;10.616;2024-01-07T03:13:56;17.15;;;10.43;;
57627;SDS011;43451;49.060;10.616;2024-01-07T03:16:22;19.27;;;11.02;;
57627;SDS011;43451;49.060;10.616;2024-01-07T03:18:48;17.35;;;10.20;;
57627;SDS011;43451;49.060;10.616;2024-01-07T03:21:21;19.00;;;10.60;;
57627;SDS011;43451;49.060;10.616;2024-01-07T03:23:48;19.52;;;10.13;;
57627;SDS011;43451;49.060;10.616;2024-01-07T03:26:15;17.75;;;10.30;;
57627;SDS011;43451;49.060;10.616;2024-01-07T03:28:42;15.77;;;10.07;;
57627;SDS011;43451;49.060;10.616;2024-01-07T03:31:14;23.83;;;10.68;;
57627;SDS011;43451;49.060;10.616;2024-01-07T03:33:41;16.92;;;10.40;;
57627;SDS011;43451;49.060;10.616;2024-01-07T03:36:08;17.80;;;10.70;;
57627;SDS011;43451;49.060;10.616;2024-01-07T03:38:34;14.75;;;9.77;;
57627;SDS011;43451;49.060;10.616;2024-01-07T03:41:00;16.75;;;10.60;;
57627;SDS011;43451;49.060;10.616;2024-01-07T03:43:26;20.08;;;10.55;;
57627;SDS011;43451;49.060;10.616;2024-01-07T03:45:51;20.95;;;11.40;;
57627;SDS011;43451;49.060;10.616;2024-01-07T03:48:17;16.50;;;10.52;;
57627;SDS011;43451;49.060;10.616;2024-01-07T03:50:42;18.08;;;11.30;;
57627;SDS011;43451;49.060;10.616;2024-01-07T03:53:08;19.00;;;10.52;;
57627;SDS011;43451;49.060;10.616;2024-01-07T03:55:34;17.40;;;10.38;;
57627;SDS011;43451;49.060;10.616;2024-01-07T03:57:59;18.13;;;10.43;;
57627;SDS011;43451;49.060;10.616;2024-01-07T04:00:25;17.02;;;10.23;;
57627;SDS011;43451;49.060;10.616;2024-01-07T04:02:50;15.60;;;10.25;;
57627;SDS011;43451;49.060;10.616;2024-01-07T04:05:16;17.02;;;9.95;;
57627;SDS011;43451;49.060;10.616;2024-01-07T04:07:41;15.70;;;10.32;;
57627;SDS011;43451;49.060;10.616;2024-01-07T04:10:07;17.50;;;10.25;;
57627;SDS011;43451;49.060;10.616;2024-01-07T04:12:33;15.65;;;10.07;;
57627;SDS011;43451;49.060;10.616;2024-01-07T04:14:58;16.05;;;9.82;;
57627;SDS011;43451;49.060;10.616;2024-01-07T04:17:23;16.52;;;10.15;;
57627;SDS011;43451;49.060;10.616;2024-01-07T04:19:49;15.45;;;9.93;;
57627;SDS011;43451;49.060;10.616;2024-01-07T04:22:14;15.40;;;10.05;;
57627;SDS011;43451;49.060;10.616;2024-01-07T04:24:40;14.93;;;9.13;;
57627;SDS011;43451;49.060;10.616;2024-01-07T04:27:06;15.45;;;9.00;;
57627;SDS011;43451;49.060;10.616;2024-01-07T04:29:32;16.38;;;9.48;;
57627;SDS011;43451;49.060;10.616;2024-01-07T04:31:57;17.42;;;9.43;;
57627;SDS011;43451;49.060;10.616;2024-01-07T04:34:23;14.50;;;9.15;;
57627;SDS011;43451;49.060;10.616;2024-01-07T04:36:49;13.55;;;8.25;;
57627;SDS011;43451;49.060;10.616;2024-01-07T04:39:15;13.88;;;8.75;;
57627;SDS011;43451;49.060;10.616;2024-01-07T04:41:40;14.40;;;8.50;;
57627;SDS011;43451;49.060;10.616;2024-01-07T04:44:06;14.00;;;8.48;;
57627;SDS011;43451;49.060;10.616;2024-01-07T04:46:34;13.80;;;8.75;;
57627;SDS011;43451;49.060;10.616;2024-01-07T04:49:03;13.48;;;8.45;;
57627;SDS011;43451;49.060;10.616;2024-01-07T04:51:28;15.00;;;9.63;;
57627;SDS011;43451;49.060;10.616;2024-01-07T04:53:54;13.10;;;8.10;;
57627;SDS011;43451;49.060;10.616;2024-01-07T04:56:19;12.80;;;8.23;;
57627;SDS011;43451;49.060;10.616;2024-01-07T04:58:45;14.52;;;8.82;;
57627;SDS011;43451;49.060;10.616;2024-01-07T05:01:11;14.30;;;8.50;;
57627;SDS011;43451;49.060;10.616;2024-01-07T05:03:37;13.80;;;8.15;;
57627;SDS011;43451;49.060;10.616;2024-01-07T05:06:03;13.52;;;8.38;;
57627;SDS011;43451;49.060;10.616;2024-01-07T05:08:29;16.25;;;9.25;;
57627;SDS011;43451;49.060;10.616;2024-01-07T05:10:55;13.27;;;8.18;;
57627;SDS011;43451;49.060;10.616;2024-01-07T05:13:21;13.90;;;8.30;;
57627;SDS011;43451;49.060;10.616;2024-01-07T05:15:47;13.13;;;8.00;;
57627;SDS011;43451;49.060;10.616;2024-01-07T05:18:20;13.48;;;8.10;;
57627;SDS011;43451;49.060;10.616;2024-01-07T05:20:48;12.50;;;7.75;;
57627;SDS011;43451;49.060;10.616;2024-01-07T05:23:14;12.93;;;7.60;;
57627;SDS011;43451;49.060;10.616;2024-01-07T05:25:41;13.73;;;8.15;;
57627;SDS011;43451;49.060;10.616;2024-01-07T05:28:07;14.48;;;7.97;;
57627;SDS011;43451;49.060;10.616;2024-01-07T05:30:33;14.43;;;8.32;;
57627;SDS011;43451;49.060;10.616;2024-01-07T05:32:58;12.10;;;7.32;;
57627;SDS011;43451;49.060;10.616;2024-01-07T05:35:24;11.80;;;7.65;;
57627;SDS011;43451;49.060;10.616;2024-01-07T05:37:49;14.50;;;8.20;;
57627;SDS011;43451;49.060;10.616;2024-01-07T05:40:15;13.60;;;8.18;;
57627;SDS011;43451;49.060;10.616;2024-01-07T05:42:40;13.20;;;7.65;;
57627;SDS011;43451;49.060;10.616;2024-01-07T05:45:06;14.65;;;8.13;;
57627;SDS011;43451;49.060;10.616;2024-01-07T05:47:31;13.45;;;8.18;;
57627;SDS011;43451;49.060;10.616;2024-01-07T05:49:57;14.30;;;8.15;;
57627;SDS011;43451;49.060;10.616;2024-01-07T05:52:23;13.45;;;7.82;;
57627;SDS011;43451;49.060;10.616;2024-01-07T05:54:49;15.20;;;8.48;;
57627;SDS011;43451;49.060;10.616;2024-01-07T05:57:14;14.55;;;8.40;;
57627;SDS011;43451;49.060;10.616;2024-01-07T05:59:40;13.82;;;8.23;;
57627;SDS011;43451;49.060;10.616;2024-01-07T06:02:05;14.00;;;8.02;;
57627;SDS011;43451;49.060;10.616;2024-01-07T06:04:30;14.88;;;8.15;;
57627;SDS011;43451;49.060;10.616;2024-01-07T06:06:56;13.45;;;7.82;;
57627;SDS011;43451;49.060;10.616;2024-01-07T06:09:21;15.32;;;8.27;;
57627;SDS011;43451;49.060;10.616;2024-01-07T06:11:47;14.50;;;7.78;;
57627;SDS011;43451;49.060;10.616;2024-01-07T06:14:12;14.40;;;8.55;;
57627;SDS011;43451;49.060;10.616;2024-01-07T06:16:38;14.30;;;8.30;;
57627;SDS011;43451;49.060;10.616;2024-01-07T06:19:03;12.27;;;7.55;;
57627;SDS011;43451;49.060;10.616;2024-01-07T06:21:29;13.75;;;7.63;;
57627;SDS011;43451;49.060;10.616;2024-01-07T06:23:54;14.57;;;7.63;;
57627;SDS011;43451;49.060;10.616;2024-01-07T06:26:20;12.95;;;7.32;;
57627;SDS011;43451;49.060;10.616;2024-01-07T06:28:46;13.57;;;7.03;;
57627;SDS011;43451;49.060;10.616;2024-01-07T06:31:11;13.13;;;7.45;;
57627;SDS011;43451;49.060;10.616;2024-01-07T06:33:36;12.98;;;6.90;;
57627;SDS011;43451;49.060;10.616;2024-01-07T06:36:02;10.98;;;6.53;;
57627;SDS011;43451;49.060;10.616;2024-01-07T06:38:27;11.10;;;6.38;;
57627;SDS011;43451;49.060;10.616;2024-01-07T06:40:53;12.20;;;6.07;;
57627;SDS011;43451;49.060;10.616;2024-01-07T06:43:20;11.57;;;6.18;;
57627;SDS011;43451;49.060;10.616;2024-01-07T06:45:45;10.77;;;6.55;;
57627;SDS011;43451;49.060;10.616;2024-01-07T06:48:11;9.68;;;6.15;;
57627;SDS011;43451;49.060;10.616;2024-01-07T06:50:37;11.10;;;6.00;;
57627;SDS011;43451;49.060;10.616;2024-01-07T06:53:02;9.35;;;5.72;;
57627;SDS011;43451;49.060;10.616;2024-01-07T06:55:28;10.25;;;5.80;;
57627;SDS011;43451;49.060;10.616;2024-01-07T06:57:53;11.10;;;6.78;;
57627;SDS011;43451;49.060;10.616;2024-01-07T07:00:19;9.75;;;5.80;;
57627;SDS011;43451;49.060;10.616;2024-01-07T07:02:45;9.48;;;5.60;;
57627;SDS011;43451;49.060;10.616;2024-01-07T07:05:10;11.63;;;5.82;;
57627;SDS011;43451;49.060;10.616;2024-01-07T07:07:36;9.90;;;5.50;;
57627;SDS011;43451;49.060;10.616;2024-01-07T07:10:01;10.65;;;5.78;;
57627;SDS011;43451;49.060;10.616;2024-01-07T07:12:27;9.68;;;5.78;;
57627;SDS011;43451;49.060;10.616;2024-01-07T07:14:53;11.48;;;5.50;;
57627;SDS011;43451;49.060;10.616;2024-01-07T07:17:18;9.73;;;5.20;;
57627;SDS011;43451;49.060;10.616;2024-01-07T07:19:43;10.60;;;5.95;;
57627;SDS011;43451;49.060;10.616;2024-01-07T07:22:09;9.93;;;5.20;;
57627;SDS011;43451;49.060;10.616;2024-01-07T07:24:35;9.82;;;5.50;;
57627;SDS011;43451;49.060;10.616;2024-01-07T07:27:00;10.35;;;5.80;;
57627;SDS011;43451;49.060;10.616;2024-01-07T07:29:25;11.23;;;6.05;;
57627;SDS011;43451;49.060;10.616;2024-01-07T07:31:51;11.38;;;6.00;;
57627;SDS011;43451;49.060;10.616;2024-01-07T07:34:16;13.52;;;6.22;;
57627;SDS011;43451;49.060;10.616;2024-01-07T07:36:42;15.68;;;7.57;;
57627;SDS011;43451;49.060;10.616;2024-01-07T07:39:10;11.93;;;6.20;;
57627;SDS011;43451;49.060;10.616;2024-01-07T07:41:35;11.20;;;5.97;;
57627;SDS011;43451;49.060;10.616;2024-01-07T07:44:01;12.55;;;6.25;;
57627;SDS011;43451;49.060;10.616;2024-01-07T07:46:26;11.73;;;6.25;;
57627;SDS011;43451;49.060;10.616;2024-01-07T07:48:52;12.50;;;6.85;;
57627;SDS011;43451;49.060;10.616;2024-01-07T07:51:17;10.82;;;5.72;;
57627;SDS011;43451;49.060;10.616;2024-01-07T07:53:43;11.98;;;6.38;;
57627;SDS011;43451;49.060;10.616;2024-01-07T07:56:08;17.92;;;8.30;;
57627;SDS011;43451;49.060;10.616;2024-01-07T07:58:34;13.65;;;7.40;;
57627;SDS011;43451;49.060;10.616;2024-01-07T08:00:59;14.70;;;7.78;;
57627;SDS011;43451;49.060;10.616;2024-01-07T08:03:25;12.82;;;6.70;;
57627;SDS011;43451;49.060;10.616;2024-01-07T08:05:50;11.07;;;6.13;;
57627;SDS011;43451;49.060;10.616;2024-01-07T08:08:16;12.85;;;7.15;;
57627;SDS011;43451;49.060;10.616;2024-01-07T08:10:42;15.02;;;7.30;;
57627;SDS011;43451;49.060;10.616;2024-01-07T08:13:07;13.20;;;7.07;;
57627;SDS011;43451;49.060;10.616;2024-01-07T08:15:34;13.05;;;6.93;;
57627;SDS011;43451;49.060;10.616;2024-01-07T08:18:00;13.00;;;7.13;;
57627;SDS011;43451;49.060;10.616;2024-01-07T08:20:28;13.07;;;6.75;;
57627;SDS011;43451;49.060;10.616;2024-01-07T08:22:54;12.07;;;6.55;;
57627;SDS011;43451;49.060;10.616;2024-01-07T08:25:19;13.30;;;7.00;;
57627;SDS011;43451;49.060;10.616;2024-01-07T08:27:45;12.68;;;6.45;;
57627;SDS011;43451;49.060;10.616;2024-01-07T08:30:11;14.98;;;7.22;;
57627;SDS011;43451;49.060;10.616;2024-01-07T08:32:39;13.13;;;7.35;;
57627;SDS011;43451;49.060;10.616;2024-01-07T08:35:05;13.85;;;7.78;;
57627;SDS011;43451;49.060;10.616;2024-01-07T08:37:31;14.85;;;7.53;;
57627;SDS011;43451;49.060;10.616;2024-01-07T08:39:57;12.10;;;6.68;;
57627;SDS011;43451;49.060;10.616;2024-01-07T08:42:22;15.35;;;7.13;;
57627;SDS011;43451;49.060;10.616;2024-01-07T08:44:48;12.88;;;7.32;;
57627;SDS011;43451;49.060;10.616;2024-01-07T08:47:14;14.15;;;7.50;;
57627;SDS011;43451;49.060;10.616;2024-01-07T08:49:40;13.85;;;7.70;;
57627;SDS011;43451;49.060;10.616;2024-01-07T08:52:05;13.50;;;7.45;;
57627;SDS011;43451;49.060;10.616;2024-01-07T08:54:31;13.90;;;7.60;;
57627;SDS011;43451;49.060;10.616;2024-01-07T08:56:58;14.13;;;7.45;;
57627;SDS011;43451;49.060;10.616;2024-01-07T08:59:24;14.57;;;7.85;;
57627;SDS011;43451;49.060;10.616;2024-01-07T09:01:49;14.40;;;7.68;;
57627;SDS011;43451;49.060;10.616;2024-01-07T09:04:15;15.45;;;7.50;;
57627;SDS011;43451;49.060;10.616;2024-01-07T09:06:42;12.80;;;7.05;;
57627;SDS011;43451;49.060;10.616;2024-01-07T09:11:36;15.38;;;7.72;;
57627;SDS011;43451;49.060;10.616;2024-01-07T09:14:02;13.73;;;7.60;;
57627;SDS011;43451;49.060;10.616;2024-01-07T09:16:31;14.35;;;7.70;;
57627;SDS011;43451;49.060;10.616;2024-01-07T09:18:56;12.80;;;7.65;;
57627;SDS011;43451;49.060;10.616;2024-01-07T09:21:22;14.98;;;8.02;;
57627;SDS011;43451;49.060;10.616;2024-01-07T09:23:50;13.80;;;7.90;;
57627;SDS011;43451;49.060;10.616;2024-01-07T09:26:16;13.48;;;7.70;;
57627;SDS011;43451;49.060;10.616;2024-01-07T09:28:42;13.20;;;7.07;;
57627;SDS011;43451;49.060;10.616;2024-01-07T09:31:08;14.73;;;7.80;;
57627;SDS011;43451;49.060;10.616;2024-01-07T09:33:33;15.20;;;8.45;;
57627;SDS011;43451;49.060;10.616;2024-01-07T09:35:59;12.10;;;7.43;;
57627;SDS011;43451;49.060;10.616;2024-01-07T09:38:25;15.25;;;8.02;;
57627;SDS011;43451;49.060;10.616;2024-01-07T09:40:51;15.15;;;7.40;;
57627;SDS011;43451;49.060;10.616;2024-01-07T09:43:18;15.38;;;8.73;;
57627;SDS011;43451;49.060;10.616;2024-01-07T09:45:48;15.68;;;8.32;;
57627;SDS011;43451;49.060;10.616;2024-01-07T09:50:42;14.43;;;8.00;;
57627;SDS011;43451;49.060;10.616;2024-01-07T09:53:10;14.52;;;8.15;;
57627;SDS011;43451;49.060;10.616;2024-01-07T09:55:48;14.10;;;7.82;;
57627;SDS011;43451;49.060;10.616;2024-01-07T09:58:19;16.30;;;8.38;;
57627;SDS011;43451;49.060;10.616;2024-01-07T10:00:45;16.67;;;8.52;;
57627;SDS011;43451;49.060;10.616;2024-01-07T10:03:11;16.38;;;8.30;;
57627;SDS011;43451;49.060;10.616;2024-01-07T10:05:37;14.95;;;8.57;;
57627;SDS011;43451;49.060;10.616;2024-01-07T10:08:02;17.02;;;8.98;;
57627;SDS011;43451;49.060;10.616;2024-01-07T10:10:28;15.15;;;9.10;;
57627;SDS011;43451;49.060;10.616;2024-01-07T10:12:54;14.15;;;8.13;;
57627;SDS011;43451;49.060;10.616;2024-01-07T10:15:22;15.68;;;8.80;;
57627;SDS011;43451;49.060;10.616;2024-01-07T10:17:48;16.58;;;9.30;;
57627;SDS011;43451;49.060;10.616;2024-01-07T10:20:14;18.35;;;9.00;;
57627;SDS011;43451;49.060;10.616;2024-01-07T10:22:41;19.42;;;9.15;;
57627;SDS011;43451;49.060;10.616;2024-01-07T10:25:12;16.50;;;9.13;;
57627;SDS011;43451;49.060;10.616;2024-01-07T10:27:39;18.17;;;9.38;;
57627;SDS011;43451;49.060;10.616;2024-01-07T10:30:05;18.88;;;9.77;;
57627;SDS011;43451;49.060;10.616;2024-01-07T10:32:31;17.27;;;9.55;;
57627;SDS011;43451;49.060;10.616;2024-01-07T10:34:59;17.17;;;9.23;;
57627;SDS011;43451;49.060;10.616;2024-01-07T10:37:28;17.13;;;9.35;;
57627;SDS011;43451;49.060;10.616;2024-01-07T10:39:54;19.83;;;8.80;;
57627;SDS011;43451;49.060;10.616;2024-01-07T10:42:32;19.60;;;9.95;;
57627;SDS011;43451;49.060;10.616;2024-01-07T10:45:02;18.23;;;9.80;;
57627;SDS011;43451;49.060;10.616;2024-01-07T10:47:29;18.92;;;9.40;;
57627;SDS011;43451;49.060;10.616;2024-01-07T10:49:59;20.58;;;10.60;;
57627;SDS011;43451;49.060;10.616;2024-01-07T10:52:27;17.95;;;9.60;;
57627;SDS011;43451;49.060;10.616;2024-01-07T10:54:53;18.85;;;10.07;;
57627;SDS011;43451;49.060;10.616;2024-01-07T10:57:55;21.27;;;10.50;;
57627;SDS011;43451;49.060;10.616;2024-01-07T11:00:15;22.70;;;10.23;;
57627;SDS011;43451;49.060;10.616;2024-01-07T11:11:21;18.88;;;10.73;;
57627;SDS011;43451;49.060;10.616;2024-01-07T11:13:52;21.95;;;10.95;;
57627;SDS011;43451;49.060;10.616;2024-01-07T11:19:05;20.05;;;10.48;;
57627;SDS011;43451;49.060;10.616;2024-01-07T11:21:30;22.35;;;10.75;;
57627;SDS011;43451;49.060;10.616;2024-01-07T11:23:56;24.27;;;11.98;;
57627;SDS011;43451;49.060;10.616;2024-01-07T11:26:21;23.13;;;11.63;;
57627;SDS011;43451;49.060;10.616;2024-01-07T11:28:54;23.23;;;11.90;;
57627;SDS011;43451;49.060;10.616;2024-01-07T11:34:04;23.63;;;12.40;;
57627;SDS011;43451;49.060;10.616;2024-01-07T11:36:29;22.48;;;11.57;;
57627;SDS011;43451;49.060;10.616;2024-01-07T11:38:55;24.30;;;11.07;;
57627;SDS011;43451;49.060;10.616;2024-01-07T11:41:20;20.27;;;10.75;;
57627;SDS011;43451;49.060;10.616;2024-01-07T11:43:53;21.35;;;11.27;;
57627;SDS011;43451;49.060;10.616;2024-01-07T11:46:21;25.08;;;12.57;;
57627;SDS011;43451;49.060;10.616;2024-01-07T11:48:53;21.60;;;11.27;;
57627;SDS011;43451;49.060;10.616;2024-01-07T11:51:26;22.85;;;11.52;;
57627;SDS011;43451;49.060;10.616;2024-01-07T11:53:53;24.38;;;12.20;;
57627;SDS011;43451;49.060;10.616;2024-01-07T11:56:19;22.77;;;11.55;;
57627;SDS011;43451;49.060;10.616;2024-01-07T11:58:45;23.35;;;12.13;;
57627;SDS011;43451;49.060;10.616;2024-01-07T12:01:10;25.90;;;11.50;;
57627;SDS011;43451;49.060;10.616;2024-01-07T12:03:36;21.25;;;10.32;;
57627;SDS011;43451;49.060;10.616;2024-01-07T12:06:05;23.13;;;11.77;;
57627;SDS011;43451;49.060;10.616;2024-01-07T12:08:30;20.90;;;11.00;;
57627;SDS011;43451;49.060;10.616;2024-01-07T12:10:56;21.70;;;11.00;;
57627;SDS011;43451;49.060;10.616;2024-01-07T12:13:22;22.52;;;11.32;;
57627;SDS011;43451;49.060;10.616;2024-01-07T12:15:48;23.00;;;11.73;;
57627;SDS011;43451;49.060;10.616;2024-01-07T12:18:13;24.77;;;11.93;;
57627;SDS011;43451;49.060;10.616;2024-01-07T12:20:39;22.65;;;11.60;;
57627;SDS011;43451;49.060;10.616;2024-01-07T12:23:09;25.27;;;12.43;;
57627;SDS011;43451;49.060;10.616;2024-01-07T12:25:35;21.83;;;11.50;;
57627;SDS011;43451;49.060;10.616;2024-01-07T12:28:01;21.35;;;11.65;;
57627;SDS011;43451;49.060;10.616;2024-01-07T12:30:31;24.67;;;12.30;;
57627;SDS011;43451;49.060;10.616;2024-01-07T12:32:57;21.48;;;11.32;;
57627;SDS011;43451;49.060;10.616;2024-01-07T12:35:24;25.75;;;12.27;;
57627;SDS011;43451;49.060;10.616;2024-01-07T12:37:50;21.52;;;11.48;;
57627;SDS011;43451;49.060;10.616;2024-01-07T12:40:17;23.00;;;11.40;;
57627;SDS011;43451;49.060;10.616;2024-01-07T12:42:42;21.33;;;10.68;;
57627;SDS011;43451;49.060;10.616;2024-01-07T12:47:38;20.67;;;10.75;;
57627;SDS011;43451;49.060;10.616;2024-01-07T12:50:04;21.63;;;10.65;;
57627;SDS011;43451;49.060;10.616;2024-01-07T12:52:30;21.83;;;11.95;;
57627;SDS011;43451;49.060;10.616;2024-01-07T12:54:55;23.08;;;11.50;;
57627;SDS011;43451;49.060;10.616;2024-01-07T12:57:22;19.30;;;10.65;;
57627;SDS011;43451;49.060;10.616;2024-01-07T12:59:48;21.02;;;10.68;;
57627;SDS011;43451;49.060;10.616;2024-01-07T13:02:13;22.88;;;11.30;;
57627;SDS011;43451;49.060;10.616;2024-01-07T13:04:39;21.15;;;10.63;;
57627;SDS011;43451;49.060;10.616;2024-01-07T13:07:04;22.35;;;10.73;;
57627;SDS011;43451;49.060;10.616;2024-01-07T13:09:30;21.48;;;10.77;;
57627;SDS011;43451;49.060;10.616;2024-01-07T13:11:55;19.00;;;10.25;;
57627;SDS011;43451;49.060;10.616;2024-01-07T13:14:23;18.50;;;10.57;;
57627;SDS011;43451;49.060;10.616;2024-01-07T13:16:48;19.98;;;10.30;;
57627;SDS011;43451;49.060;10.616;2024-01-07T13:19:14;20.83;;;10.13;;
57627;SDS011;43451;49.060;10.616;2024-01-07T13:21:39;21.05;;;10.63;;
57627;SDS011;43451;49.060;10.616;2024-01-07T13:24:05;21.85;;;10.38;;
57627;SDS011;43451;49.060;10.616;2024-01-07T13:26:31;18.88;;;9.73;;
57627;SDS011;43451;49.060;10.616;2024-01-07T13:28:56;17.25;;;8.98;;
57627;SDS011;43451;49.060;10.616;2024-01-07T13:31:22;20.45;;;10.40;;
57627;SDS011;43451;49.060;10.616;2024-01-07T13:33:48;21.83;;;10.20;;
57627;SDS011;43451;49.060;10.616;2024-01-07T13:36:14;17.20;;;9.18;;
57627;SDS011;43451;49.060;10.616;2024-01-07T13:38:40;20.65;;;10.40;;
57627;SDS011;43451;49.060;10.616;2024-01-07T13:41:07;18.75;;;9.38;;
57627;SDS011;43451;49.060;10.616;2024-01-07T13:43:33;20.08;;;10.10;;
57627;SDS011;43451;49.060;10.616;2024-01-07T13:45:59;19.45;;;10.63;;
57627;SDS011;43451;49.060;10.616;2024-01-07T13:48:25;19.27;;;10.25;;
57627;SDS011;43451;49.060;10.616;2024-01-07T13:50:50;17.83;;;9.88;;
57627;SDS011;43451;49.060;10.616;2024-01-07T13:53:18;20.77;;;10.30;;
57627;SDS011;43451;49.060;10.616;2024-01-07T13:55:44;19.15;;;10.10;;
57627;SDS011;43451;49.060;10.616;2024-01-07T13:58:11;21.70;;;10.25;;
57627;SDS011;43451;49.060;10.616;2024-01-07T14:00:37;20.90;;;10.57;;
57627;SDS011;43451;49.060;10.616;2024-01-07T14:03:03;19.42;;;10.10;;
57627;SDS011;43451;49.060;10.616;2024-01-07T14:05:28;21.50;;;10.05;;
57627;SDS011;43451;49.060;10.616;2024-01-07T14:07:54;19.52;;;9.68;;
57627;SDS011;43451;49.060;10.616;2024-01-07T14:10:19;21.10;;;10.50;;
57627;SDS011;43451;49.060;10.616;2024-01-07T14:12:45;21.00;;;10.40;;
57627;SDS011;43451;49.060;10.616;2024-01-07T14:15:10;18.65;;;9.45;;
57627;SDS011;43451;49.060;10.616;2024-01-07T14:17:36;20.27;;;9.75;;
57627;SDS011;43451;49.060;10.616;2024-01-07T14:20:01;18.70;;;9.20;;
57627;SDS011;43451;49.060;10.616;2024-01-07T14:22:28;20.30;;;8.90;;
57627;SDS011;43451;49.060;10.616;2024-01-07T14:24:54;16.50;;;8.90;;
57627;SDS011;43451;49.060;10.616;2024-01-07T14:27:19;16.25;;;9.00;;
57627;SDS011;43451;49.060;10.616;2024-01-07T14:29:45;19.27;;;9.32;;
57627;SDS011;43451;49.060;10.616;2024-01-07T14:32:11;18.17;;;9.43;;
57627;SDS011;43451;49.060;10.616;2024-01-07T14:34:40;16.88;;;8.73;;
57627;SDS011;43451;49.060;10.616;2024-01-07T14:37:09;19.30;;;8.75;;